SR-SS   ¦   EYVI 0621-1439UTC    ¦   EYKA 0625-1445UTC    ¦   EYSA 0633-1443UTC    ¦   EYPA 0644-1450UTC


***********************WWW.PILOTUMOKYKLA.LT**********************
****************************WX START*****************************

EYVI - Vilnius International (ATIS: 125.8)
(IFR) EYVI 221550Z 21009KT 8000 OVC007 M08/M09 Q1019 R19/1///95 NOSIG
(IFR) EYVI 221520Z 22008KT 9000 OVC006 M08/M09 Q1019 R19/1///95 NOSIG
(IFR) EYVI 221450Z 21008KT 180V240 9999 OVC007 M08/M09 Q1019 R19/1///95 NOSIG

Couldn't resolve host 'weather.noaa.gov'=============================================================

EYKA - Kaunas International (ATIS: 129.05)
(IFR) EYKA 221550Z 17008KT 130V200 9000 OVC007 M07/M10 Q1020 R08/190095
(IFR) EYKA 221520Z 20004KT 150V240 9999 OVC007 M07/M10 Q1020 R08/190095
(IFR) EYKA 221450Z 19005KT 160V220 9999 OVC007 M07/M10 Q1020 R08/190095

Couldn't resolve host 'weather.noaa.gov'=============================================================

EYSA - Siauliai International (Military) (ATIS: 120.75)
(LIFR) EYSA 221550Z 20011KT 8000 OVC003 M09/M09 Q1018 R14L/19//95 R14R/19//95 YLO2 NOSIG
(LIFR) EYSA 221520Z 21010KT 7000 OVC004 M08/M09 Q1018 R14L/19//95 R14R/19//95 YLO2 NOSIG
(LIFR) EYSA 221450Z 21011KT 6000 BKN004 OVC100 M08/M08 Q1018 R14L/19//95 R14R/19//95 YLO2 NOSIG

Couldn't resolve host 'weather.noaa.gov'=============================================================

EYPA - Palanga International (ATIS: 127.8)
(IFR) EYPA 221550Z 18014KT 8000 BKN007 BKN019 M07/M08 Q1018 R19/1///95
(IFR) EYPA 221520Z 17012KT 9000 BKN007 BKN018 M07/M08 Q1018 R19/1///95
(IFR) EYPA 221450Z 17011KT 8000 OVC007 M07/M08 Q1018 R19/1///95

Couldn't resolve host 'weather.noaa.gov'=============================================================

UMMG - Hrodna International (ATIS: 135.02)
Couldn't resolve host 'weather.noaa.gov'=============================================================

NOTE: WX Report includes all metar's issued in last 1:30h and latest TAF's.

******************************WX END*********************************
***********************************************************************